Time;durP1;ratioP1;P1;durP2;ratioP2;P2;SDS_P1;SDS_P2;PMS_P1;PMS_P2;Temp;Humidity;BMP_temperature;BMP_pressure;BME280_temperature;BME280_humidity;BME280_pressure;Samples;Min_cycle;Max_cycle;Signal;HPM_P1;HPM_P2
2023/05/23 00:02:15;;;;;;;10.20;9.20;;;;;;;;;;5095853;28;20051;-88
2023/05/23 00:04:43;;;;;;;9.65;8.70;;;;;;;;;;5097532;28;20051;-87
2023/05/23 00:07:10;;;;;;;9.27;8.38;;;;;;;;;;5093753;28;20561;-87
2023/05/23 00:09:38;;;;;;;10.02;9.10;;;;;;;;;;5093802;28;20127;-87
2023/05/23 00:12:05;;;;;;;10.32;9.30;;;;;;;;;;5093631;28;20070;-87
2023/05/23 00:14:34;;;;;;;10.73;9.77;;;;;;;;;;5093547;28;20454;-87
2023/05/23 00:17:01;;;;;;;11.80;9.88;;;;;;;;;;5093351;28;20040;-86
2023/05/23 00:19:29;;;;;;;9.75;8.80;;;;;;;;;;5093391;28;20083;-88
2023/05/23 00:21:57;;;;;;;10.63;9.57;;;;;;;;;;5093397;28;20538;-87
2023/05/23 00:24:25;;;;;;;12.20;10.00;;;;;;;;;;5094964;28;20063;-87
2023/05/23 00:26:52;;;;;;;12.57;9.30;;;;;;;;;;5093458;28;20048;-88
2023/05/23 00:29:19;;;;;;;13.48;9.63;;;;;;;;;;5092812;28;20495;-88
2023/05/23 00:31:46;;;;;;;10.27;9.25;;;;;;;;;;5093434;28;20450;-88
2023/05/23 00:34:16;;;;;;;9.93;9.02;;;;;;;;;;5093228;28;20093;-88
2023/05/23 00:36:46;;;;;;;9.98;8.95;;;;;;;;;;5093318;28;20079;-88
2023/05/23 00:39:18;;;;;;;9.18;8.38;;;;;;;;;;5093243;28;20048;-88
2023/05/23 00:41:48;;;;;;;9.23;8.32;;;;;;;;;;5093138;28;20488;-88
2023/05/23 00:44:18;;;;;;;10.48;9.25;;;;;;;;;;5094047;28;20420;-88
2023/05/23 00:46:47;;;;;;;10.93;8.98;;;;;;;;;;5093195;28;20048;-87
2023/05/23 00:49:18;;;;;;;11.25;8.68;;;;;;;;;;5093077;28;20048;-88
2023/05/23 00:51:48;;;;;;;14.23;9.70;;;;;;;;;;5094247;28;20159;-87
2023/05/23 00:54:18;;;;;;;9.93;8.93;;;;;;;;;;5092959;28;20093;-88
2023/05/23 00:56:45;;;;;;;12.43;9.85;;;;;;;;;;5092944;28;20056;-88
2023/05/23 00:59:13;;;;;;;10.27;8.88;;;;;;;;;;5093030;28;20101;-87
2023/05/23 01:01:41;;;;;;;13.00;9.05;;;;;;;;;;5095230;28;20040;-89
2023/05/23 01:04:08;;;;;;;11.57;9.18;;;;;;;;;;5093404;28;20112;-89
2023/05/23 01:06:35;;;;;;;9.68;8.77;;;;;;;;;;5092716;28;20079;-88
2023/05/23 01:09:03;;;;;;;9.88;8.88;;;;;;;;;;5092721;28;20117;-88
2023/05/23 01:11:42;;;;;;;9.70;8.70;;;;;;;;;;5092834;28;20051;-88
2023/05/23 01:14:15;;;;;;;10.20;9.20;;;;;;;;;;5092649;28;20400;-87
2023/05/23 01:17:02;;;;;;;11.10;9.18;;;;;;;;;;5094451;28;20125;-87
2023/05/23 01:19:42;;;;;;;9.55;8.65;;;;;;;;;;5094731;28;20109;-87
2023/05/23 01:22:19;;;;;;;10.88;9.73;;;;;;;;;;5092732;28;20116;-87
2023/05/23 01:24:51;;;;;;;10.15;9.05;;;;;;;;;;5092768;28;20048;-89
2023/05/23 01:27:23;;;;;;;10.25;9.27;;;;;;;;;;5092750;28;20083;-88
2023/05/23 01:29:54;;;;;;;10.48;9.48;;;;;;;;;;5092555;28;20048;-89
2023/05/23 01:32:22;;;;;;;10.45;9.30;;;;;;;;;;5093603;28;20051;-90
2023/05/23 01:34:51;;;;;;;14.70;9.82;;;;;;;;;;5093735;28;20051;-89
2023/05/23 01:37:19;;;;;;;11.18;9.95;;;;;;;;;;5092437;28;20074;-89
2023/05/23 01:39:46;;;;;;;9.88;9.05;;;;;;;;;;5092481;28;20055;-89
2023/05/23 01:42:14;;;;;;;10.13;9.15;;;;;;;;;;5095028;28;20059;-88
2023/05/23 01:44:42;;;;;;;12.65;9.88;;;;;;;;;;5096533;28;20071;-89
2023/05/23 01:47:10;;;;;;;11.30;9.88;;;;;;;;;;5097860;28;20514;-89
2023/05/23 01:49:38;;;;;;;22.40;9.75;;;;;;;;;;5096574;28;20048;-89
2023/05/23 01:52:08;;;;;;;11.13;10.13;;;;;;;;;;5097652;28;20463;-88
2023/05/23 01:54:38;;;;;;;12.20;9.93;;;;;;;;;;5096323;28;20194;-88
2023/05/23 01:57:05;;;;;;;11.02;9.93;;;;;;;;;;5096168;28;20148;-88
2023/05/23 01:59:33;;;;;;;14.98;10.25;;;;;;;;;;5096266;28;20048;-87
2023/05/23 02:02:00;;;;;;;10.07;9.27;;;;;;;;;;5097051;28;20469;-87
2023/05/23 02:04:28;;;;;;;10.57;9.73;;;;;;;;;;5097140;28;20052;-87
2023/05/23 02:06:55;;;;;;;11.30;9.55;;;;;;;;;;5096096;28;20055;-88
2023/05/23 02:09:22;;;;;;;12.85;10.50;;;;;;;;;;5096844;28;20043;-88
2023/05/23 02:11:49;;;;;;;12.82;10.00;;;;;;;;;;5095805;28;20047;-88
2023/05/23 02:14:17;;;;;;;15.23;10.93;;;;;;;;;;5095737;28;20048;-88
2023/05/23 02:16:44;;;;;;;11.73;10.40;;;;;;;;;;5095492;28;20079;-88
2023/05/23 02:19:12;;;;;;;11.20;10.07;;;;;;;;;;5095540;28;20052;-88
2023/05/23 02:21:39;;;;;;;10.52;9.52;;;;;;;;;;5095711;28;20044;-89
2023/05/23 02:24:06;;;;;;;11.18;10.07;;;;;;;;;;5095526;28;20048;-87
2023/05/23 02:26:34;;;;;;;11.05;10.05;;;;;;;;;;5095802;28;20066;-88
2023/05/23 02:29:01;;;;;;;11.90;10.60;;;;;;;;;;5096617;28;20495;-87
2023/05/23 02:31:28;;;;;;;11.80;10.70;;;;;;;;;;5097013;28;20048;-88
2023/05/23 02:33:56;;;;;;;11.85;10.63;;;;;;;;;;5098667;28;20044;-88
2023/05/23 02:36:23;;;;;;;11.27;10.27;;;;;;;;;;5095875;28;20080;-88
2023/05/23 02:38:50;;;;;;;16.52;11.43;;;;;;;;;;5096476;28;20047;-88
2023/05/23 02:41:17;;;;;;;12.45;11.15;;;;;;;;;;5095271;28;20070;-88
2023/05/23 02:43:46;;;;;;;14.85;10.68;;;;;;;;;;5095379;28;20059;-87
2023/05/23 02:46:13;;;;;;;11.55;10.45;;;;;;;;;;5095088;28;20117;-88
2023/05/23 02:48:41;;;;;;;11.95;10.82;;;;;;;;;;5096209;28;20048;-88
2023/05/23 02:51:08;;;;;;;13.70;11.02;;;;;;;;;;5095998;28;20087;-88
2023/05/23 02:53:35;;;;;;;12.32;11.15;;;;;;;;;;5095527;28;20044;-88
2023/05/23 02:56:03;;;;;;;12.07;10.77;;;;;;;;;;5095498;28;20086;-88
2023/05/23 02:58:31;;;;;;;13.10;11.68;;;;;;;;;;5094933;28;20048;-88
2023/05/23 03:00:58;;;;;;;13.32;12.00;;;;;;;;;;5095086;28;20135;-88
2023/05/23 03:03:27;;;;;;;12.88;11.27;;;;;;;;;;5095051;28;20048;-88
2023/05/23 03:05:55;;;;;;;14.48;11.68;;;;;;;;;;5095254;28;20051;-88
2023/05/23 03:08:22;;;;;;;12.82;11.63;;;;;;;;;;5095115;28;20087;-88
2023/05/23 03:10:49;;;;;;;14.98;13.48;;;;;;;;;;5096219;28;20052;-88
2023/05/23 03:13:17;;;;;;;13.80;11.90;;;;;;;;;;5095818;28;20116;-88
2023/05/23 03:15:45;;;;;;;14.50;13.10;;;;;;;;;;5095853;28;20503;-88
2023/05/23 03:18:13;;;;;;;14.18;12.88;;;;;;;;;;5095837;28;20052;-88
2023/05/23 03:20:40;;;;;;;13.55;12.15;;;;;;;;;;5094485;28;20051;-88
2023/05/23 03:23:08;;;;;;;14.30;12.93;;;;;;;;;;5094653;28;20059;-89
2023/05/23 03:25:35;;;;;;;15.52;13.73;;;;;;;;;;5095448;28;20130;-88
2023/05/23 03:28:03;;;;;;;15.07;13.48;;;;;;;;;;5094986;28;20534;-88
2023/05/23 03:30:30;;;;;;;16.27;13.93;;;;;;;;;;5095819;28;20055;-87
2023/05/23 03:32:58;;;;;;;16.83;12.95;;;;;;;;;;5096084;28;20055;-89
2023/05/23 03:35:25;;;;;;;13.27;11.88;;;;;;;;;;5096060;28;20047;-88
2023/05/23 03:37:53;;;;;;;14.68;12.77;;;;;;;;;;5096106;28;20048;-89
2023/05/23 03:40:20;;;;;;;14.45;12.98;;;;;;;;;;5094752;28;20116;-89
2023/05/23 03:42:48;;;;;;;13.73;12.45;;;;;;;;;;5094494;28;20052;-88
2023/05/23 03:45:17;;;;;;;14.35;12.23;;;;;;;;;;5094982;28;20052;-89
2023/05/23 03:47:44;;;;;;;15.32;11.32;;;;;;;;;;5108991;28;20059;-89
2023/05/23 03:50:12;;;;;;;14.88;12.30;;;;;;;;;;5099596;28;20048;-87
2023/05/23 03:52:40;;;;;;;12.25;11.15;;;;;;;;;;5094889;28;20056;-88
2023/05/23 03:55:08;;;;;;;12.80;11.30;;;;;;;;;;5094120;28;20048;-89
2023/05/23 03:57:35;;;;;;;11.63;10.45;;;;;;;;;;5095016;28;20101;-92
2023/05/23 04:00:05;;;;;;;9.82;8.57;;;;;;;;;;5094444;28;20101;-93
2023/05/23 04:02:32;;;;;;;11.05;10.05;;;;;;;;;;5093898;28;20117;-94
2023/05/23 04:05:01;;;;;;;14.00;10.05;;;;;;;;;;5092988;28;20056;-93
2023/05/23 04:07:29;;;;;;;11.45;10.25;;;;;;;;;;5094025;28;20052;-92
2023/05/23 04:09:56;;;;;;;11.38;9.88;;;;;;;;;;5093824;28;20051;-94
2023/05/23 04:12:24;;;;;;;12.02;10.75;;;;;;;;;;5093693;28;20051;-95
2023/05/23 04:14:51;;;;;;;12.00;10.00;;;;;;;;;;5093516;28;20044;-91
2023/05/23 04:17:19;;;;;;;13.52;10.30;;;;;;;;;;5093480;28;20048;-92
2023/05/23 04:19:47;;;;;;;13.00;10.30;;;;;;;;;;5093598;28;20504;-91
2023/05/23 04:22:15;;;;;;;9.23;8.38;;;;;;;;;;5093659;28;20044;-90
2023/05/23 04:24:42;;;;;;;11.88;9.77;;;;;;;;;;5093655;28;20101;-91
2023/05/23 04:27:09;;;;;;;13.55;12.13;;;;;;;;;;5093708;28;20044;-88
2023/05/23 04:29:37;;;;;;;11.77;10.60;;;;;;;;;;5093761;28;20083;-90
2023/05/23 04:32:05;;;;;;;11.85;10.05;;;;;;;;;;5093687;28;20052;-90
2023/05/23 04:34:36;;;;;;;10.52;9.40;;;;;;;;;;5093697;28;20561;-90
2023/05/23 04:37:04;;;;;;;12.93;8.73;;;;;;;;;;5093462;28;20484;-91
2023/05/23 04:39:31;;;;;;;9.90;8.77;;;;;;;;;;5093948;28;20076;-91
2023/05/23 04:41:58;;;;;;;9.02;8.13;;;;;;;;;;5093368;28;20472;-91
2023/05/23 04:44:29;;;;;;;9.75;7.88;;;;;;;;;;5093429;28;20503;-90
2023/05/23 04:46:56;;;;;;;11.10;9.27;;;;;;;;;;5093477;28;20067;-91
2023/05/23 04:49:24;;;;;;;13.45;10.48;;;;;;;;;;5093376;28;20044;-91
2023/05/23 04:51:51;;;;;;;17.17;12.23;;;;;;;;;;5093444;28;20086;-91
2023/05/23 04:54:18;;;;;;;10.23;9.23;;;;;;;;;;5093279;28;20105;-92
2023/05/23 04:56:45;;;;;;;13.70;11.27;;;;;;;;;;5093277;28;20458;-91
2023/05/23 04:59:13;;;;;;;10.90;9.90;;;;;;;;;;5093442;28;20075;-91
2023/05/23 05:01:40;;;;;;;13.40;10.52;;;;;;;;;;5096451;28;20055;-91
2023/05/23 05:04:07;;;;;;;14.07;10.55;;;;;;;;;;5114920;28;20052;-91
2023/05/23 05:06:35;;;;;;;15.82;12.20;;;;;;;;;;5100039;28;20048;-91
2023/05/23 05:09:02;;;;;;;16.80;11.00;;;;;;;;;;5093024;28;20545;-92
2023/05/23 05:11:29;;;;;;;16.95;13.07;;;;;;;;;;5093703;28;20051;-91
2023/05/23 05:13:57;;;;;;;15.15;11.38;;;;;;;;;;5093259;28;20071;-89
2023/05/23 05:16:24;;;;;;;13.00;10.27;;;;;;;;;;5092779;28;20071;-90
2023/05/23 05:18:51;;;;;;;13.55;10.20;;;;;;;;;;5093768;28;20553;-91
2023/05/23 05:21:19;;;;;;;16.40;12.02;;;;;;;;;;5098003;28;20060;-90
2023/05/23 05:23:46;;;;;;;18.90;11.65;;;;;;;;;;5093001;28;20072;-92
2023/05/23 05:26:13;;;;;;;14.95;11.60;;;;;;;;;;5094013;28;20044;-92
2023/05/23 05:28:41;;;;;;;16.90;12.60;;;;;;;;;;5092837;28;20531;-90
2023/05/23 05:31:08;;;;;;;15.70;12.15;;;;;;;;;;5093198;28;20044;-90
2023/05/23 05:33:36;;;;;;;16.48;14.35;;;;;;;;;;5092936;28;20054;-90
2023/05/23 05:36:03;;;;;;;15.30;12.98;;;;;;;;;;5092906;28;20052;-90
2023/05/23 05:38:31;;;;;;;17.02;12.23;;;;;;;;;;5092979;28;20048;-89
2023/05/23 05:40:58;;;;;;;17.45;12.27;;;;;;;;;;5092498;28;20048;-90
2023/05/23 05:43:26;;;;;;;15.80;12.93;;;;;;;;;;5092391;28;20048;-89
2023/05/23 05:45:53;;;;;;;16.17;12.23;;;;;;;;;;5093525;28;20048;-89
2023/05/23 05:48:20;;;;;;;14.32;12.82;;;;;;;;;;5092495;28;20048;-89
2023/05/23 05:50:47;;;;;;;13.57;11.50;;;;;;;;;;5093308;28;20068;-89
2023/05/23 05:53:15;;;;;;;13.82;12.40;;;;;;;;;;5092665;28;20079;-89
2023/05/23 05:55:42;;;;;;;14.75;11.57;;;;;;;;;;5092933;28;20084;-89
2023/05/23 05:58:09;;;;;;;17.35;11.13;;;;;;;;;;5092668;28;20101;-89
2023/05/23 06:00:41;;;;;;;18.45;13.10;;;;;;;;;;5093001;28;20048;-89
2023/05/23 06:03:11;;;;;;;16.70;13.10;;;;;;;;;;5092800;28;20097;-91
2023/05/23 06:05:39;;;;;;;16.23;13.13;;;;;;;;;;5092951;28;20404;-89
2023/05/23 06:08:06;;;;;;;14.00;12.43;;;;;;;;;;5092678;28;20082;-90
2023/05/23 06:10:34;;;;;;;26.48;15.85;;;;;;;;;;5092594;28;20377;-91
2023/05/23 06:13:01;;;;;;;15.13;13.52;;;;;;;;;;5092584;28;20080;-90
2023/05/23 06:15:28;;;;;;;20.30;17.33;;;;;;;;;;5092673;28;20458;-89
2023/05/23 06:17:55;;;;;;;16.23;12.70;;;;;;;;;;5105257;28;20044;-90
2023/05/23 06:20:23;;;;;;;12.60;11.00;;;;;;;;;;5099185;28;20056;-90
2023/05/23 06:22:50;;;;;;;17.05;12.40;;;;;;;;;;5092204;28;20093;-89
2023/05/23 06:25:17;;;;;;;11.20;9.98;;;;;;;;;;5092419;28;20052;-90
2023/05/23 06:27:45;;;;;;;12.38;10.77;;;;;;;;;;5094373;28;20048;-90
2023/05/23 06:30:12;;;;;;;13.93;11.27;;;;;;;;;;5096271;28;20484;-89
2023/05/23 06:32:40;;;;;;;14.40;12.05;;;;;;;;;;5095711;28;20098;-88
2023/05/23 06:35:08;;;;;;;13.82;12.20;;;;;;;;;;5095679;28;20048;-88
2023/05/23 06:37:35;;;;;;;14.40;12.77;;;;;;;;;;5095836;28;20554;-87
2023/05/23 06:40:02;;;;;;;17.20;13.25;;;;;;;;;;5095876;28;20052;-89
2023/05/23 06:42:29;;;;;;;13.43;12.02;;;;;;;;;;5095589;28;20052;-89
2023/05/23 06:44:57;;;;;;;13.75;12.30;;;;;;;;;;5095762;28;20047;-87
2023/05/23 06:47:24;;;;;;;18.52;12.25;;;;;;;;;;5095333;28;20078;-86
2023/05/23 06:49:51;;;;;;;12.30;11.00;;;;;;;;;;5095456;28;20052;-87
2023/05/23 06:52:18;;;;;;;14.75;11.80;;;;;;;;;;5095459;28;20112;-88
2023/05/23 06:54:46;;;;;;;15.77;10.73;;;;;;;;;;5095193;28;20098;-88
2023/05/23 06:57:13;;;;;;;11.27;9.63;;;;;;;;;;5095462;28;20048;-89
2023/05/23 06:59:40;;;;;;;10.82;8.25;;;;;;;;;;5095371;28;20044;-88
2023/05/23 07:02:07;;;;;;;10.30;8.65;;;;;;;;;;5095200;28;20094;-89
2023/05/23 07:04:35;;;;;;;8.73;7.07;;;;;;;;;;5095189;28;20070;-91
2023/05/23 07:07:02;;;;;;;14.77;8.13;;;;;;;;;;5095449;28;20393;-89
2023/05/23 07:09:29;;;;;;;9.43;7.90;;;;;;;;;;5095177;28;20048;-93
2023/05/23 07:11:57;;;;;;;12.15;7.18;;;;;;;;;;5095332;28;20121;-90
2023/05/23 07:14:24;;;;;;;10.55;7.35;;;;;;;;;;5094882;28;20083;-93
2023/05/23 07:16:51;;;;;;;10.82;7.20;;;;;;;;;;5095131;28;20095;-89
2023/05/23 07:19:19;;;;;;;11.93;7.20;;;;;;;;;;5094613;28;20559;-89
2023/05/23 07:21:46;;;;;;;10.23;7.63;;;;;;;;;;5094515;28;20044;-88
2023/05/23 07:24:13;;;;;;;8.15;7.18;;;;;;;;;;5095516;28;20060;-90
2023/05/23 07:26:40;;;;;;;7.57;6.80;;;;;;;;;;5095007;28;20044;-90
2023/05/23 07:29:08;;;;;;;8.93;7.78;;;;;;;;;;5094770;28;20055;-93
2023/05/23 07:31:35;;;;;;;8.57;7.72;;;;;;;;;;5095528;28;20561;-89
2023/05/23 07:34:02;;;;;;;11.57;8.20;;;;;;;;;;5107345;28;20052;-89
2023/05/23 07:36:32;;;;;;;10.80;7.55;;;;;;;;;;5096909;28;20135;-89
2023/05/23 07:39:01;;;;;;;11.38;7.72;;;;;;;;;;5094546;28;20056;-89
2023/05/23 07:41:28;;;;;;;8.10;6.78;;;;;;;;;;5094336;28;20075;-87
2023/05/23 07:43:55;;;;;;;8.35;7.43;;;;;;;;;;5093465;28;20044;-89
2023/05/23 07:46:22;;;;;;;8.77;7.32;;;;;;;;;;5093967;28;20099;-88
2023/05/23 07:48:50;;;;;;;13.88;7.63;;;;;;;;;;5094247;28;20048;-88
2023/05/23 07:51:20;;;;;;;9.18;6.60;;;;;;;;;;5094323;28;20488;-87
2023/05/23 07:53:47;;;;;;;12.82;7.45;;;;;;;;;;5094244;28;20054;-87
2023/05/23 07:56:15;;;;;;;8.98;6.97;;;;;;;;;;5094118;28;20056;-93
2023/05/23 07:58:43;;;;;;;8.48;6.20;;;;;;;;;;5094127;28;20040;-90
2023/05/23 08:01:10;;;;;;;6.95;6.25;;;;;;;;;;5094085;28;20044;-92
2023/05/23 08:03:38;;;;;;;7.85;7.05;;;;;;;;;;5093840;28;20071;-87
2023/05/23 08:06:06;;;;;;;8.38;7.28;;;;;;;;;;5094077;28;20134;-91
2023/05/23 08:08:33;;;;;;;6.18;5.60;;;;;;;;;;5094100;28;20044;-92
2023/05/23 08:11:00;;;;;;;16.05;6.30;;;;;;;;;;5093986;28;20048;-89
2023/05/23 08:13:28;;;;;;;7.35;6.30;;;;;;;;;;5094014;28;20101;-90
2023/05/23 08:15:55;;;;;;;6.10;5.53;;;;;;;;;;5093970;28;20083;-91
2023/05/23 08:18:22;;;;;;;8.75;6.15;;;;;;;;;;5093733;28;20450;-91
2023/05/23 08:20:50;;;;;;;8.88;5.93;;;;;;;;;;5093559;28;20087;-92
2023/05/23 08:23:18;;;;;;;5.40;4.80;;;;;;;;;;5093400;28;20101;-91
2023/05/23 08:25:45;;;;;;;5.22;4.72;;;;;;;;;;5093746;28;20131;-92
2023/05/23 08:28:12;;;;;;;6.47;4.40;;;;;;;;;;5093882;28;20236;-92
2023/05/23 08:30:41;;;;;;;6.30;5.00;;;;;;;;;;5094383;28;20068;-96
2023/05/23 08:33:08;;;;;;;8.82;4.82;;;;;;;;;;5094662;28;20047;-94
2023/05/23 08:35:36;;;;;;;5.88;4.72;;;;;;;;;;5094438;28;20060;-93
2023/05/23 08:38:08;;;;;;;5.22;4.05;;;;;;;;;;5093738;28;20044;-94
2023/05/23 08:40:36;;;;;;;5.03;4.53;;;;;;;;;;5093413;28;20055;-92
2023/05/23 08:43:04;;;;;;;4.38;3.95;;;;;;;;;;5093285;28;20052;-91
2023/05/23 08:45:33;;;;;;;4.72;4.30;;;;;;;;;;5093433;28;20047;-92
2023/05/23 08:48:01;;;;;;;3.95;3.55;;;;;;;;;;5100764;28;20050;-93
2023/05/23 08:50:29;;;;;;;3.17;2.90;;;;;;;;;;5113268;28;20036;-93
2023/05/23 08:52:58;;;;;;;2.70;2.50;;;;;;;;;;5095721;28;20044;-88
2023/05/23 08:55:29;;;;;;;3.22;2.33;;;;;;;;;;5093552;28;20056;-95
2023/05/23 08:57:59;;;;;;;3.13;2.80;;;;;;;;;;5093651;28;20411;-93
2023/05/23 09:00:28;;;;;;;4.25;3.85;;;;;;;;;;5093491;28;20458;-93
2023/05/23 09:02:55;;;;;;;6.10;2.60;;;;;;;;;;5093349;28;20044;-92
2023/05/23 09:05:23;;;;;;;4.22;2.70;;;;;;;;;;5092698;28;20052;-93
2023/05/23 09:07:51;;;;;;;2.40;2.30;;;;;;;;;;5093263;28;20043;-92
2023/05/23 09:10:21;;;;;;;2.88;2.10;;;;;;;;;;5093324;28;20068;-94
2023/05/23 09:12:49;;;;;;;2.05;1.90;;;;;;;;;;5093295;28;20059;-93
2023/05/23 09:15:16;;;;;;;2.45;2.22;;;;;;;;;;5092794;28;20047;-93
2023/05/23 09:17:44;;;;;;;4.00;2.35;;;;;;;;;;5093221;28;20504;-94
2023/05/23 09:20:13;;;;;;;5.18;2.38;;;;;;;;;;5092836;28;20105;-94
2023/05/23 09:22:41;;;;;;;2.40;2.20;;;;;;;;;;5092657;28;20413;-89
2023/05/23 09:25:08;;;;;;;2.08;1.95;;;;;;;;;;5092368;28;20052;-92
2023/05/23 09:27:36;;;;;;;2.42;2.22;;;;;;;;;;5092998;28;20052;-90
2023/05/23 09:30:07;;;;;;;2.72;2.25;;;;;;;;;;5093088;28;20056;-91
2023/05/23 09:32:35;;;;;;;4.38;1.80;;;;;;;;;;5093090;28;20040;-89
2023/05/23 09:35:03;;;;;;;2.35;1.98;;;;;;;;;;5092664;28;20313;-92
2023/05/23 09:37:32;;;;;;;2.15;1.80;;;;;;;;;;5092796;28;20094;-92
2023/05/23 09:40:00;;;;;;;3.00;2.20;;;;;;;;;;5108919;28;20052;-92
2023/05/23 09:42:32;;;;;;;2.88;2.08;;;;;;;;;;5100576;28;20043;-92
2023/05/23 09:44:59;;;;;;;4.30;2.03;;;;;;;;;;5092449;28;20051;-93
2023/05/23 09:47:30;;;;;;;6.88;1.70;;;;;;;;;;5093030;28;20087;-93
2023/05/23 09:49:58;;;;;;;1.73;1.73;;;;;;;;;;5093170;28;20044;-91
2023/05/23 09:52:25;;;;;;;2.13;1.90;;;;;;;;;;5092577;28;20076;-92
2023/05/23 09:54:54;;;;;;;3.05;1.92;;;;;;;;;;5092747;28;20044;-92
2023/05/23 09:57:22;;;;;;;5.65;2.30;;;;;;;;;;5092950;28;20055;-93
2023/05/23 09:59:55;;;;;;;3.25;1.88;;;;;;;;;;5092581;28;20511;-91
2023/05/23 10:02:41;;;;;;;2.08;1.98;;;;;;;;;;5094972;28;20055;-90
2023/05/23 10:05:12;;;;;;;2.60;1.90;;;;;;;;;;5115553;28;20056;-91
2023/05/23 10:07:39;;;;;;;1.85;1.50;;;;;;;;;;5100440;28;20488;-90
2023/05/23 10:10:09;;;;;;;2.75;1.70;;;;;;;;;;5096474;28;20048;-90
2023/05/23 10:12:55;;;;;;;5.50;2.55;;;;;;;;;;5096405;28;20451;-93
2023/05/23 10:15:25;;;;;;;4.70;1.92;;;;;;;;;;5096585;28;20052;-93
2023/05/23 10:18:05;;;;;;;1.83;1.73;;;;;;;;;;5096568;28;20052;-92
2023/05/23 10:20:33;;;;;;;2.95;1.70;;;;;;;;;;5096032;28;20052;-93
2023/05/23 10:23:00;;;;;;;2.88;1.77;;;;;;;;;;5096134;28;20048;-93
2023/05/23 10:25:28;;;;;;;2.90;1.77;;;;;;;;;;5095602;28;20048;-94
2023/05/23 10:27:57;;;;;;;2.17;1.40;;;;;;;;;;5096576;28;20048;-94
2023/05/23 10:30:27;;;;;;;8.57;2.00;;;;;;;;;;5096068;28;20056;-93
2023/05/23 10:32:56;;;;;;;1.90;1.80;;;;;;;;;;5096026;28;20097;-90
2023/05/23 10:35:37;;;;;;;2.30;2.10;;;;;;;;;;5095910;28;20052;-94
2023/05/23 10:38:05;;;;;;;1.80;1.65;;;;;;;;;;5096008;28;20059;-93
2023/05/23 10:40:51;;;;;;;2.53;2.33;;;;;;;;;;5096023;28;20101;-92
2023/05/23 10:43:18;;;;;;;3.20;2.03;;;;;;;;;;5095826;28;20117;-93
2023/05/23 10:45:49;;;;;;;3.05;1.88;;;;;;;;;;5095422;28;20052;-93
2023/05/23 10:48:21;;;;;;;4.57;2.28;;;;;;;;;;5095722;28;20095;-91
2023/05/23 10:51:02;;;;;;;2.13;1.92;;;;;;;;;;5095987;28;20059;-91
2023/05/23 10:53:30;;;;;;;11.70;2.70;;;;;;;;;;5095643;28;20056;-89
2023/05/23 10:55:58;;;;;;;2.25;2.15;;;;;;;;;;5095374;28;20101;-93
2023/05/23 10:58:25;;;;;;;2.55;2.25;;;;;;;;;;5095457;28;20079;-92
2023/05/23 11:00:53;;;;;;;2.40;2.20;;;;;;;;;;5095466;28;20044;-89
2023/05/23 11:03:32;;;;;;;4.93;2.33;;;;;;;;;;5095286;28;20040;-92
2023/05/23 11:06:00;;;;;;;2.30;2.00;;;;;;;;;;5095402;28;20134;-92
2023/05/23 11:08:29;;;;;;;2.45;2.35;;;;;;;;;;5095588;28;20048;-92
2023/05/23 11:11:13;;;;;;;1.92;1.83;;;;;;;;;;5095553;28;20056;-89
2023/05/23 11:13:54;;;;;;;2.30;2.10;;;;;;;;;;5094630;28;20048;-91
2023/05/23 11:16:31;;;;;;;2.30;2.20;;;;;;;;;;5096578;28;20097;-92
2023/05/23 11:19:18;;;;;;;2.67;2.47;;;;;;;;;;5094808;28;20548;-91
2023/05/23 11:21:52;;;;;;;2.17;2.08;;;;;;;;;;5102564;28;20107;-91
2023/05/23 11:24:20;;;;;;;2.20;2.00;;;;;;;;;;5094969;28;20044;-91
2023/05/23 11:26:59;;;;;;;2.38;2.20;;;;;;;;;;5095264;28;20056;-91
2023/05/23 11:29:27;;;;;;;2.30;2.20;;;;;;;;;;5094948;28;20229;-93
2023/05/23 11:31:55;;;;;;;3.00;2.22;;;;;;;;;;5095015;28;20412;-92
2023/05/23 11:34:23;;;;;;;3.72;2.03;;;;;;;;;;5094732;28;20048;-93
2023/05/23 11:36:56;;;;;;;2.05;1.95;;;;;;;;;;5094753;28;20091;-90
2023/05/23 11:39:23;;;;;;;2.13;2.03;;;;;;;;;;5094642;28;20135;-89
2023/05/23 11:42:00;;;;;;;2.00;1.90;;;;;;;;;;5094595;28;20074;-93
2023/05/23 11:44:28;;;;;;;2.08;1.98;;;;;;;;;;5094240;28;20102;-91
2023/05/23 11:46:59;;;;;;;2.00;1.90;;;;;;;;;;5094560;28;20048;-93
2023/05/23 11:49:36;;;;;;;6.32;2.15;;;;;;;;;;5098706;28;20058;-90
2023/05/23 11:52:05;;;;;;;2.25;1.90;;;;;;;;;;5104312;28;20067;-90
2023/05/23 11:54:32;;;;;;;2.00;1.90;;;;;;;;;;5094966;28;20047;-93
2023/05/23 11:57:02;;;;;;;2.80;2.28;;;;;;;;;;5094653;28;20134;-91
2023/05/23 11:59:30;;;;;;;2.25;2.05;;;;;;;;;;5094724;28;20052;-91
2023/05/23 12:01:57;;;;;;;1.80;1.70;;;;;;;;;;5094715;28;20105;-92
2023/05/23 12:04:25;;;;;;;5.20;1.73;;;;;;;;;;5094556;28;20534;-92
2023/05/23 12:06:53;;;;;;;3.95;1.83;;;;;;;;;;5094509;28;20063;-92
2023/05/23 12:09:20;;;;;;;1.83;1.73;;;;;;;;;;5094048;28;20075;-91
2023/05/23 12:11:48;;;;;;;2.00;1.80;;;;;;;;;;5094466;28;20051;-91
2023/05/23 12:14:16;;;;;;;3.60;1.55;;;;;;;;;;5094031;28;20043;-91
2023/05/23 12:16:48;;;;;;;1.38;1.38;;;;;;;;;;5093879;28;20692;-91
2023/05/23 12:19:18;;;;;;;23.42;3.10;;;;;;;;;;5093826;28;20086;-89
2023/05/23 12:21:46;;;;;;;3.33;1.70;;;;;;;;;;5094322;28;20105;-92
2023/05/23 12:24:21;;;;;;;2.60;2.38;;;;;;;;;;5093574;28;20052;-94
2023/05/23 12:26:49;;;;;;;2.22;2.03;;;;;;;;;;5093925;28;20047;-94
2023/05/23 12:29:18;;;;;;;58.75;12.65;;;;;;;;;;5094637;28;20047;-95
2023/05/23 12:31:47;;;;;;;4.32;2.47;;;;;;;;;;5093283;28;20459;-89
2023/05/23 12:34:15;;;;;;;8.65;2.58;;;;;;;;;;5093850;28;20090;-93
2023/05/23 12:36:44;;;;;;;1.90;1.80;;;;;;;;;;5103929;28;20055;-94
2023/05/23 12:39:24;;;;;;;13.38;4.15;;;;;;;;;;5094087;28;20496;-93
2023/05/23 12:41:51;;;;;;;7.38;5.13;;;;;;;;;;5093296;28;20063;-90
2023/05/23 12:44:18;;;;;;;5.05;3.97;;;;;;;;;;5093155;28;20079;-91
2023/05/23 12:46:45;;;;;;;6.55;5.18;;;;;;;;;;5093151;28;20067;-91
2023/05/23 12:49:13;;;;;;;87.95;46.10;;;;;;;;;;5093248;28;20047;-89
2023/05/23 12:51:40;;;;;;;45.03;25.33;;;;;;;;;;5093227;28;20109;-88
2023/05/23 12:54:08;;;;;;;41.70;22.55;;;;;;;;;;5092963;28;20474;-86
2023/05/23 12:56:35;;;;;;;44.92;26.30;;;;;;;;;;5092983;28;20048;-88
2023/05/23 12:59:03;;;;;;;1.85;1.75;;;;;;;;;;5093094;28;20101;-89
2023/05/23 13:01:30;;;;;;;1.52;1.30;;;;;;;;;;5093204;28;20055;-92
2023/05/23 13:03:59;;;;;;;1.20;1.15;;;;;;;;;;5093850;28;20134;-93
2023/05/23 13:06:26;;;;;;;10.45;6.22;;;;;;;;;;5094072;28;20055;-89
2023/05/23 13:08:54;;;;;;;5.97;2.42;;;;;;;;;;5093131;28;20094;-93
2023/05/23 13:11:21;;;;;;;2.72;1.35;;;;;;;;;;5093021;28;20087;-90
2023/05/23 13:13:49;;;;;;;1.20;0.50;;;;;;;;;;5093128;28;20044;-93
2023/05/23 13:16:17;;;;;;;4.00;0.80;;;;;;;;;;5092928;28;20048;-92
2023/05/23 13:18:45;;;;;;;1.45;0.90;;;;;;;;;;5092944;28;20093;-93
2023/05/23 13:21:12;;;;;;;16.73;7.53;;;;;;;;;;5093322;28;20059;-91
2023/05/23 13:23:39;;;;;;;5.50;4.38;;;;;;;;;;5092899;28;20048;-91
2023/05/23 13:26:07;;;;;;;3.90;1.50;;;;;;;;;;5092856;28;20055;-92
2023/05/23 13:28:34;;;;;;;4.47;1.15;;;;;;;;;;5093932;28;20044;-93
2023/05/23 13:31:02;;;;;;;2.28;0.88;;;;;;;;;;5104705;28;20071;-91
2023/05/23 13:33:29;;;;;;;5.35;2.08;;;;;;;;;;5108239;28;20066;-91
2023/05/23 13:35:57;;;;;;;0.70;0.70;;;;;;;;;;5098002;28;20070;-91
2023/05/23 13:38:26;;;;;;;0.70;0.70;;;;;;;;;;5097847;28;20044;-93
2023/05/23 13:40:54;;;;;;;1.40;0.60;;;;;;;;;;5100002;28;20135;-93
2023/05/23 13:43:21;;;;;;;1.00;0.60;;;;;;;;;;5098744;28;20052;-95
2023/05/23 13:45:49;;;;;;;1.30;0.60;;;;;;;;;;5097063;28;20044;-93
2023/05/23 13:48:16;;;;;;;0.55;0.50;;;;;;;;;;5097426;28;20052;-92
2023/05/23 13:50:43;;;;;;;0.55;0.45;;;;;;;;;;5100383;28;20060;-91
2023/05/23 13:53:15;;;;;;;2.78;0.60;;;;;;;;;;5104552;28;20112;-85
2023/05/23 13:55:43;;;;;;;1.05;0.60;;;;;;;;;;5096964;28;20040;-89
2023/05/23 13:58:11;;;;;;;0.60;0.60;;;;;;;;;;5097276;28;20089;-93
2023/05/23 14:00:39;;;;;;;0.75;0.75;;;;;;;;;;5108311;28;20044;-93
2023/05/23 14:03:07;;;;;;;0.63;0.63;;;;;;;;;;5101255;28;20052;-91
2023/05/23 14:05:35;;;;;;;0.85;0.82;;;;;;;;;;5096538;28;20047;-92
2023/05/23 14:08:03;;;;;;;1.60;1.50;;;;;;;;;;5096694;28;20044;-91
2023/05/23 14:10:32;;;;;;;1.02;1.02;;;;;;;;;;5096528;28;20450;-90
2023/05/23 14:13:00;;;;;;;1.02;0.90;;;;;;;;;;5096607;28;20048;-92
2023/05/23 14:15:27;;;;;;;1.30;1.20;;;;;;;;;;5096705;28;20051;-91
2023/05/23 14:17:55;;;;;;;119.63;43.03;;;;;;;;;;5096076;28;20055;-90
2023/05/23 14:20:23;;;;;;;5.97;2.53;;;;;;;;;;5096190;28;20142;-90
2023/05/23 14:23:13;;;;;;;5.13;1.70;;;;;;;;;;5098436;28;20515;-95
2023/05/23 14:25:42;;;;;;;5.28;2.15;;;;;;;;;;5095690;28;20486;-94
2023/05/23 14:28:10;;;;;;;2.20;2.10;;;;;;;;;;5095814;28;20073;-91
2023/05/23 14:30:37;;;;;;;31.00;9.93;;;;;;;;;;5095957;28;20047;-88
2023/05/23 14:33:05;;;;;;;5.00;2.80;;;;;;;;;;5095755;28;20456;-89
2023/05/23 14:35:36;;;;;;;8.20;4.63;;;;;;;;;;5096106;28;20052;-92
2023/05/23 14:38:03;;;;;;;16.20;9.73;;;;;;;;;;5095559;28;20052;-89
2023/05/23 14:40:30;;;;;;;3.08;2.60;;;;;;;;;;5096430;28;20048;-89
2023/05/23 14:42:59;;;;;;;2.40;2.20;;;;;;;;;;5100988;28;20404;-93